Terminal Aerodrome Forecast
Issued by NWS

Home | Current Version | Previous Version | Graphics & Text | Print | Product List | Glossary On
Versions: 1 2 3 4 5 6 7 8 9 10 11 12 13 14 15 16 17 18 19 20 21 22 23 24 25 26 27 28 29
000
FTUS43 KABR 172004 AAA
TAFATY
TAF AMD
KATY 172004Z 1720/1818 20016G28KT P6SM FEW080
     FM180000 18009KT P6SM VCTS SCT200CB
     FM180300 17008KT P6SM BKN200
     FM181500 05009KT P6SM -SHRA BKN045=

USA.gov is the U.S. government's official web portal to all federal, state and local government web resources and services.